Test XHTML 1.0 Strict Page for WU-History Testing
Station Historical Data
 
Daily Summary for November 19, 2017 Units:  Both    English   Metric
« Previous Day
Next Day »
Daily Weekly Monthly Yearly Custom
  Current: High: Low: Average:
Temperature: 33.1 °F /  0.6 °C 40.5 °F /  4.7 °C 28.0 °F /  -2.2 °C 32.9 °F /  0.5 °C
Dew Point: 32.1 °F /  0.1 °C 38.6 °F /  3.7 °C 27.5 °F /  -2.5 °C 32 °F /  0 °C
Humidity: 96 % 99 % 92 % 97 %
Wind Speed: 0.0 mph /  0 km/h 3.5 mph /  5.6 km/h - 0.3 mph /  0.5 km/h
Wind Gust: 0.0 mph /  0 km/h 3.5 mph /  5.6 km/h - -
Wind:Calm - - SW
Pressure: 30.25 in /  1024.3 hPa 30.25 in /  1024.3 hPa 30.17 in /  1021.6 hPa -
Precipitation: 0.00 in /  0 mm      
Historical Graphs
 
 
Weather-Above Climate History
Untitled
Tabular Data for November 19, 2017
Time Temperature Dew Point Pressure Wind Wind Speed Wind Gust Humidity Rainfall Rate (Hourly) solar Conditions
00:03 40.1 °F /  4.5 °C 38.5 °F /  3.6 °C 30.17 in /  1021.6 hPa SSW 2.6 mph /  4.2 km/h 2.6 mph /  4.2 km/h 94 % 0.00 in /  0 mm 0.0 W/m2 CLR
00:08 39.7 °F /  4.3 °C 38.2 °F /  3.4 °C 30.17 in /  1021.6 hPa Calm     94 % 0.00 in /  0 mm 27.5 W/m2 CLR
00:14 40.5 °F /  4.7 °C 38.6 °F /  3.7 °C 30.18 in /  1021.9 hPa NW 1.2 mph /  1.9 km/h 1.2 mph /  1.9 km/h 93 % 0.00 in /  0 mm 20.0 W/m2 CLR
00:19 40.5 °F /  4.7 °C 38.6 °F /  3.7 °C 30.18 in /  1021.9 hPa Calm     93 % 0.00 in /  0 mm 0.0 W/m2 CLR
00:24 40.3 °F /  4.6 °C 38.4 °F /  3.6 °C 30.18 in /  1021.9 hPa Calm     93 % 0.00 in /  0 mm 20.0 W/m2
00:29 40.1 °F /  4.5 °C 38.5 °F /  3.6 °C 30.18 in /  1021.9 hPa Calm     94 % 0.00 in /  0 mm 17.5 W/m2
00:34 40.1 °F /  4.5 °C 38.5 °F /  3.6 °C 30.18 in /  1021.9 hPa WSW 0.3 mph /  0.5 km/h   94 % 0.00 in /  0 mm 0.0 W/m2 CLR
00:39 39.9 °F /  4.4 °C 38.3 °F /  3.5 °C 30.18 in /  1021.9 hPa Calm     94 % 0.00 in /  0 mm 20.0 W/m2 CLR
00:44 39.9 °F /  4.4 °C 38.1 °F /  3.4 °C 30.18 in /  1021.9 hPa East 0.3 mph /  0.5 km/h   93 % 0.00 in /  0 mm 15.0 W/m2 CLR
00:49 39.4 °F /  4.1 °C 37.8 °F /  3.2 °C 30.18 in /  1021.9 hPa Calm     94 % 0.00 in /  0 mm 0.0 W/m2 CLR
00:54 39.7 °F /  4.3 °C 37.9 °F /  3.3 °C 30.18 in /  1021.9 hPa SW 0.4 mph /  0.6 km/h 0.4 mph /  0.6 km/h 93 % 0.00 in /  0 mm 27.5 W/m2 CLR
00:59 39.4 °F /  4.1 °C 37.8 °F /  3.2 °C 30.18 in /  1021.9 hPa NW 1.5 mph /  2.4 km/h   94 % 0.00 in /  0 mm 22.5 W/m2 CLR
01:04 39.4 °F /  4.1 °C 37.5 °F /  3.1 °C 30.18 in /  1021.9 hPa WSW 3.5 mph /  5.6 km/h 3.5 mph /  5.6 km/h 93 % 0.00 in /  0 mm 0.0 W/m2
01:09 39.6 °F /  4.2 °C 37.7 °F /  3.2 °C 30.18 in /  1021.9 hPa SSW 1.2 mph /  1.9 km/h   93 % 0.00 in /  0 mm 17.5 W/m2 CLR
01:14 39.7 °F /  4.3 °C 37.6 °F /  3.1 °C 30.18 in /  1021.9 hPa SW 1.2 mph /  1.9 km/h 1.2 mph /  1.9 km/h 92 % 0.00 in /  0 mm 17.5 W/m2 CLR
01:19 39.0 °F /  3.9 °C 37.2 °F /  2.9 °C 30.19 in /  1022.2 hPa WSW 1.5 mph /  2.4 km/h 1.5 mph /  2.4 km/h 93 % 0.00 in /  0 mm 0.0 W/m2 CLR
01:24 38.5 °F /  3.6 °C 36.9 °F /  2.7 °C 30.18 in /  1021.9 hPa Calm     94 % 0.00 in /  0 mm 20.0 W/m2 CLR
01:29 37.9 °F /  3.3 °C 36.4 °F /  2.4 °C 30.19 in /  1022.2 hPa Calm     94 % 0.00 in /  0 mm 22.5 W/m2 CLR
01:34 36.9 °F /  2.7 °C 35.8 °F /  2.1 °C 30.19 in /  1022.2 hPa West 1.7 mph /  2.7 km/h 1.7 mph /  2.7 km/h 96 % 0.00 in /  0 mm 0.0 W/m2
01:39 36.7 °F /  2.6 °C 35.4 °F /  1.9 °C 30.19 in /  1022.2 hPa Calm     95 % 0.00 in /  0 mm 17.5 W/m2
01:44 36.5 °F /  2.5 °C 35.5 °F /  1.9 °C 30.19 in /  1022.2 hPa WSW 2.1 mph /  3.4 km/h 2.1 mph /  3.4 km/h 96 % 0.00 in /  0 mm 20.0 W/m2
01:49 36.3 °F /  2.4 °C 35.3 °F /  1.8 °C 30.18 in /  1021.9 hPa SSW 1.2 mph /  1.9 km/h 1.2 mph /  1.9 km/h 96 % 0.00 in /  0 mm 0.0 W/m2
01:54 36.9 °F /  2.7 °C 35.6 °F /  2 °C 30.19 in /  1022.2 hPa SW 1.2 mph /  1.9 km/h 1.2 mph /  1.9 km/h 95 % 0.00 in /  0 mm 0.0 W/m2
02:00 37.2 °F /  2.9 °C 35.7 °F /  2.1 °C 30.19 in /  1022.2 hPa South 1.2 mph /  1.9 km/h 1.2 mph /  1.9 km/h 94 % 0.00 in /  0 mm 17.5 W/m2
02:05 36.9 °F /  2.7 °C 35.6 °F /  2 °C 30.19 in /  1022.2 hPa SW 2.3 mph /  3.7 km/h 2.3 mph /  3.7 km/h 95 % 0.00 in /  0 mm 0.0 W/m2 CLR
02:10 36.7 °F /  2.6 °C 35.4 °F /  1.9 °C 30.19 in /  1022.2 hPa SSE 2.3 mph /  3.7 km/h 2.3 mph /  3.7 km/h 95 % 0.00 in /  0 mm 25.0 W/m2 CLR
02:15 36.3 °F /  2.4 °C 35.0 °F /  1.7 °C 30.19 in /  1022.2 hPa SW 1.2 mph /  1.9 km/h 1.2 mph /  1.9 km/h 95 % 0.00 in /  0 mm 22.5 W/m2
02:20 36.1 °F /  2.3 °C 34.8 °F /  1.6 °C 30.19 in /  1022.2 hPa Calm     95 % 0.00 in /  0 mm 0.0 W/m2
02:25 35.6 °F /  2 °C 34.6 °F /  1.4 °C 30.19 in /  1022.2 hPa Calm     96 % 0.00 in /  0 mm 20.0 W/m2
02:30 35.1 °F /  1.7 °C 34.0 °F /  1.1 °C 30.19 in /  1022.2 hPa Calm     96 % 0.00 in /  0 mm 20.0 W/m2
02:35 34.5 °F /  1.4 °C 33.8 °F /  1 °C 30.20 in /  1022.6 hPa Calm     97 % 0.00 in /  0 mm 0.0 W/m2
02:40 34.5 °F /  1.4 °C 33.8 °F /  1 °C 30.20 in /  1022.6 hPa Calm     97 % 0.00 in /  0 mm 0.0 W/m2
02:45 34.2 °F /  1.2 °C 33.4 °F /  0.8 °C 30.20 in /  1022.6 hPa Calm     97 % 0.00 in /  0 mm 20.0 W/m2
02:50 33.6 °F /  0.9 °C 32.9 °F /  0.5 °C 30.19 in /  1022.2 hPa Calm     97 % 0.00 in /  0 mm 0.0 W/m2
02:55 33.6 °F /  0.9 °C 32.9 °F /  0.5 °C 30.19 in /  1022.2 hPa Calm     97 % 0.00 in /  0 mm 0.0 W/m2
03:00 33.6 °F /  0.9 °C 32.9 °F /  0.5 °C 30.19 in /  1022.2 hPa Calm     97 % 0.00 in /  0 mm 25.0 W/m2
03:05 33.3 °F /  0.7 °C 32.8 °F /  0.4 °C 30.19 in /  1022.2 hPa Calm     98 % 0.00 in /  0 mm 0.0 W/m2
03:16 32.7 °F /  0.4 °C 32.2 °F /  0.1 °C 30.20 in /  1022.6 hPa Calm     98 % 0.00 in /  0 mm 45.0 W/m2
03:21 32.9 °F /  0.5 °C 32.1 °F /  0.1 °C 30.20 in /  1022.6 hPa Calm     97 % 0.00 in /  0 mm 0.0 W/m2
03:26 33.3 °F /  0.7 °C 32.5 °F /  0.3 °C 30.20 in /  1022.6 hPa Calm     97 % 0.00 in /  0 mm 0.0 W/m2
03:29 33.1 °F /  0.6 °C 32.3 °F /  0.2 °C 30.20 in /  1022.6 hPa Calm     97 % 0.00 in /  0 mm 37.5 W/m2
03:34 32.7 °F /  0.4 °C 32.2 °F /  0.1 °C 30.20 in /  1022.6 hPa Calm     98 % 0.00 in /  0 mm 0.0 W/m2
03:39 31.6 °F /  -0.2 °C 31.1 °F /  -0.5 °C 30.20 in /  1022.6 hPa Calm     98 % 0.00 in /  0 mm 0.0 W/m2
03:40 31.6 °F /  -0.2 °C 31.1 °F /  -0.5 °C 30.20 in /  1022.6 hPa Calm     98 % 0.00 in /  0 mm 0.0 W/m2
03:45 31.6 °F /  -0.2 °C 31.1 °F /  -0.5 °C 30.20 in /  1022.6 hPa Calm     98 % 0.00 in /  0 mm 35.0 W/m2
03:50 31.5 °F /  -0.3 °C 31.0 °F /  -0.6 °C 30.21 in /  1022.9 hPa Calm     98 % 0.00 in /  0 mm 0.0 W/m2
03:51 31.5 °F /  -0.3 °C 31.0 °F /  -0.6 °C 30.20 in /  1022.6 hPa Calm     98 % 0.00 in /  0 mm 0.0 W/m2
03:56 31.5 °F /  -0.3 °C 31.0 °F /  -0.6 °C 30.21 in /  1022.9 hPa Calm     98 % 0.00 in /  0 mm 0.0 W/m2
04:01 31.1 °F /  -0.5 °C 30.6 °F /  -0.8 °C 30.20 in /  1022.6 hPa Calm     98 % 0.00 in /  0 mm 0.0 W/m2
04:02 31.1 °F /  -0.5 °C 30.6 °F /  -0.8 °C 30.21 in /  1022.9 hPa Calm     98 % 0.00 in /  0 mm 0.0 W/m2
04:08 30.9 °F /  -0.6 °C 30.4 °F /  -0.9 °C 30.20 in /  1022.6 hPa Calm     98 % 0.00 in /  0 mm 0.0 W/m2
04:13 30.7 °F /  -0.7 °C 30.2 °F /  -1 °C 30.20 in /  1022.6 hPa Calm     98 % 0.00 in /  0 mm 45.0 W/m2
04:18 31.1 °F /  -0.5 °C 30.6 °F /  -0.8 °C 30.21 in /  1022.9 hPa Calm     98 % 0.00 in /  0 mm 0.0 W/m2
04:23 30.9 °F /  -0.6 °C 30.4 °F /  -0.9 °C 30.21 in /  1022.9 hPa Calm     98 % 0.00 in /  0 mm 0.0 W/m2
04:43 30.4 °F /  -0.9 °C 29.9 °F /  -1.2 °C 30.21 in /  1022.9 hPa Calm     98 % 0.00 in /  0 mm 0.0 W/m2
04:53 30.0 °F /  -1.1 °C 29.5 °F /  -1.4 °C 30.21 in /  1022.9 hPa Calm     98 % 0.00 in /  0 mm 0.0 W/m2
05:03 29.8 °F /  -1.2 °C 29.3 °F /  -1.5 °C 30.21 in /  1022.9 hPa Calm     98 % 0.00 in /  0 mm 0.0 W/m2
05:08 29.8 °F /  -1.2 °C 29.3 °F /  -1.5 °C 30.21 in /  1022.9 hPa Calm     98 % 0.00 in /  0 mm 0.0 W/m2
05:18 29.5 °F /  -1.4 °C 29.0 °F /  -1.7 °C 30.21 in /  1022.9 hPa Calm     98 % 0.00 in /  0 mm 0.0 W/m2
05:33 29.7 °F /  -1.3 °C 29.2 °F /  -1.6 °C 30.21 in /  1022.9 hPa Calm     98 % 0.00 in /  0 mm 22.5 W/m2
05:47 28.9 °F /  -1.7 °C 28.4 °F /  -2 °C 30.21 in /  1022.9 hPa Calm     98 % 0.00 in /  0 mm 30.0 W/m2
05:52 29.1 °F /  -1.6 °C 28.6 °F /  -1.9 °C 30.21 in /  1022.9 hPa Calm     98 % 0.00 in /  0 mm 0.0 W/m2
06:03 28.9 °F /  -1.7 °C 28.4 °F /  -2 °C 30.21 in /  1022.9 hPa Calm     98 % 0.00 in /  0 mm 15.0 W/m2
06:08 28.8 °F /  -1.8 °C 28.3 °F /  -2.1 °C 30.21 in /  1022.9 hPa Calm     98 % 0.00 in /  0 mm 0.0 W/m2
06:13 28.9 °F /  -1.7 °C 28.4 °F /  -2 °C 30.21 in /  1022.9 hPa Calm     98 % 0.00 in /  0 mm 0.0 W/m2
06:23 28.8 °F /  -1.8 °C 28.3 °F /  -2.1 °C 30.21 in /  1022.9 hPa Calm     98 % 0.00 in /  0 mm 0.0 W/m2
06:43 28.6 °F /  -1.9 °C 28.1 °F /  -2.2 °C 30.21 in /  1022.9 hPa Calm     98 % 0.00 in /  0 mm 0.0 W/m2
06:53 28.4 °F /  -2 °C 27.9 °F /  -2.3 °C 30.22 in /  1023.2 hPa Calm     98 % 0.00 in /  0 mm 0.0 W/m2
06:58 28.4 °F /  -2 °C 27.9 °F /  -2.3 °C 30.21 in /  1022.9 hPa Calm     98 % 0.00 in /  0 mm 0.0 W/m2
07:13 28.6 °F /  -1.9 °C 28.1 °F /  -2.2 °C 30.22 in /  1023.2 hPa Calm     98 % 0.00 in /  0 mm 0.0 W/m2
07:18 28.2 °F /  -2.1 °C 28.0 °F /  -2.2 °C 30.22 in /  1023.2 hPa Calm     99 % 0.00 in /  0 mm 15.0 W/m2
07:23 28.2 °F /  -2.1 °C 27.7 °F /  -2.4 °C 30.22 in /  1023.2 hPa Calm     98 % 0.00 in /  0 mm 0.0 W/m2
07:33 28.0 °F /  -2.2 °C 27.8 °F /  -2.3 °C 30.22 in /  1023.2 hPa Calm     99 % 0.00 in /  0 mm 27.5 W/m2
07:38 28.0 °F /  -2.2 °C 27.8 °F /  -2.3 °C 30.22 in /  1023.2 hPa Calm     99 % 0.00 in /  0 mm 60.0 W/m2
07:48 28.0 °F /  -2.2 °C 27.5 °F /  -2.5 °C 30.22 in /  1023.2 hPa Calm     98 % 0.00 in /  0 mm 40.0 W/m2
07:54 28.0 °F /  -2.2 °C 27.8 °F /  -2.3 °C 30.22 in /  1023.2 hPa Calm     99 % 0.00 in /  0 mm 0.0 W/m2
08:04 28.0 °F /  -2.2 °C 27.8 °F /  -2.3 °C 30.22 in /  1023.2 hPa Calm     99 % 0.00 in /  0 mm 0.0 W/m2
08:09 28.0 °F /  -2.2 °C 27.8 °F /  -2.3 °C 30.22 in /  1023.2 hPa Calm     99 % 0.00 in /  0 mm 0.0 W/m2
08:19 28.2 °F /  -2.1 °C 27.7 °F /  -2.4 °C 30.22 in /  1023.2 hPa Calm     98 % 0.00 in /  0 mm 0.0 W/m2
08:24 28.2 °F /  -2.1 °C 27.7 °F /  -2.4 °C 30.22 in /  1023.2 hPa Calm     98 % 0.00 in /  0 mm 0.0 W/m2
08:39 28.8 °F /  -1.8 °C 28.3 °F /  -2.1 °C 30.22 in /  1023.2 hPa Calm     98 % 0.00 in /  0 mm 0.0 W/m2
08:44 28.8 °F /  -1.8 °C 28.3 °F /  -2.1 °C 30.22 in /  1023.2 hPa Calm     98 % 0.00 in /  0 mm 40.0 W/m2
08:54 29.1 °F /  -1.6 °C 28.6 °F /  -1.9 °C 30.22 in /  1023.2 hPa Calm     98 % 0.00 in /  0 mm 0.0 W/m2
08:59 29.3 °F /  -1.5 °C 28.6 °F /  -1.9 °C 30.22 in /  1023.2 hPa Calm     97 % 0.00 in /  0 mm 40.0 W/m2
09:04 29.5 °F /  -1.4 °C 29.0 °F /  -1.7 °C 30.22 in /  1023.2 hPa Calm     98 % 0.00 in /  0 mm 0.0 W/m2 OVC
09:09 29.7 °F /  -1.3 °C 28.9 °F /  -1.7 °C 30.22 in /  1023.2 hPa Calm     97 % 0.00 in /  0 mm 0.0 W/m2 OVC
09:14 30.0 °F /  -1.1 °C 29.3 °F /  -1.5 °C 30.22 in /  1023.2 hPa Calm     97 % 0.00 in /  0 mm 107.5 W/m2 OVC
09:19 29.8 °F /  -1.2 °C 29.1 °F /  -1.6 °C 30.23 in /  1023.6 hPa Calm     97 % 0.00 in /  0 mm 0.0 W/m2 OVC
09:25 30.2 °F /  -1 °C 29.5 °F /  -1.4 °C 30.22 in /  1023.2 hPa Calm     97 % 0.00 in /  0 mm 0.0 W/m2 OVC
09:35 30.4 °F /  -0.9 °C 29.6 °F /  -1.3 °C 30.23 in /  1023.6 hPa Calm     97 % 0.00 in /  0 mm 0.0 W/m2 OVC
09:40 30.6 °F /  -0.8 °C 29.6 °F /  -1.3 °C 30.23 in /  1023.6 hPa Calm     96 % 0.00 in /  0 mm 0.0 W/m2 OVC
09:45 30.7 °F /  -0.7 °C 29.7 °F /  -1.3 °C 30.24 in /  1023.9 hPa Calm     96 % 0.00 in /  0 mm 125.0 W/m2 OVC
09:55 30.9 °F /  -0.6 °C 29.9 °F /  -1.2 °C 30.24 in /  1023.9 hPa Calm     96 % 0.00 in /  0 mm 0.0 W/m2 OVC
10:00 30.7 °F /  -0.7 °C 29.7 °F /  -1.3 °C 30.24 in /  1023.9 hPa Calm     96 % 0.00 in /  0 mm 82.5 W/m2 OVC
10:10 31.5 °F /  -0.3 °C 30.5 °F /  -0.8 °C 30.25 in /  1024.3 hPa Calm     96 % 0.00 in /  0 mm 72.5 W/m2 OVC
10:15 31.5 °F /  -0.3 °C 30.5 °F /  -0.8 °C 30.25 in /  1024.3 hPa Calm     96 % 0.00 in /  0 mm 127.5 W/m2 OVC
10:20 32.9 °F /  0.5 °C 31.9 °F /  -0.1 °C 30.25 in /  1024.3 hPa Calm     96 % 0.00 in /  0 mm 0.0 W/m2 OVC
10:25 33.1 °F /  0.6 °C 32.1 °F /  0.1 °C 30.25 in /  1024.3 hPa Calm     96 % 0.00 in /  0 mm 105.0 W/m2 OVC
Wether-Above
Compliments of Weather Underground - 1.25 mb
Welcome to Weather-Above
Cheddleton weather station supplies various organisations with data from our weather station one of them is the weather Underground this information displayed here is coming from the weather Underground server 

If any information is used please acknowledge the source to www weather-above.com or weather Underground